createdAt,value
2019-03-24T00:04:06.104Z,76.66
2019-03-24T00:09:00.111Z,76.81
2019-03-24T00:13:54.199Z,76.75
2019-03-24T00:18:48.252Z,76.54
2019-03-24T00:23:42.273Z,76.41
2019-03-24T00:28:36.241Z,75.91
2019-03-24T00:33:30.200Z,76.03
2019-03-24T00:38:24.192Z,75.90
2019-03-24T00:43:18.174Z,75.94
2019-03-24T00:48:12.164Z,76.14
2019-03-24T00:53:06.132Z,76.32
2019-03-24T00:58:00.330Z,76.45
2019-03-24T01:02:54.301Z,76.50
2019-03-24T01:07:48.505Z,76.20
2019-03-24T01:12:42.485Z,76.07
2019-03-24T01:17:36.852Z,76.14
2019-03-24T01:22:30.918Z,75.74
2019-03-24T01:27:24.888Z,75.66
2019-03-24T01:32:18.959Z,75.70
2019-03-24T01:37:12.924Z,75.44
2019-03-24T01:42:07.037Z,75.32
2019-03-24T01:47:01.128Z,75.21
2019-03-24T01:51:55.103Z,75.01
2019-03-24T01:56:49.072Z,74.80
2019-03-24T02:01:43.076Z,75.10
2019-03-24T02:06:38.670Z,75.54
2019-03-24T02:11:32.726Z,75.42
2019-03-24T02:16:26.677Z,75.95
2019-03-24T02:21:21.042Z,76.48
2019-03-24T02:26:15.107Z,76.74
2019-03-24T02:31:09.081Z,76.59
2019-03-24T02:36:03.155Z,76.57
2019-03-24T02:40:57.128Z,76.77
2019-03-24T02:45:51.101Z,76.72
2019-03-24T02:50:45.196Z,76.63
2019-03-24T02:55:39.144Z,77.29
2019-03-24T03:00:33.122Z,77.71
2019-03-24T03:05:27.120Z,77.84
2019-03-24T03:10:21.198Z,77.79
2019-03-24T03:15:15.274Z,77.74
2019-03-24T03:20:10.747Z,77.91
2019-03-24T03:25:08.001Z,78.07
2019-03-24T03:30:04.356Z,77.97
2019-03-24T03:34:58.513Z,78.20
2019-03-24T03:39:57.305Z,78.68
2019-03-24T03:44:48.528Z,79.16
2019-03-24T03:49:42.508Z,80.16
2019-03-24T03:54:36.461Z,80.20
2019-03-24T03:59:30.443Z,80.08
2019-03-24T04:04:24.417Z,80.27
2019-03-24T04:09:18.398Z,80.73
2019-03-24T04:14:12.475Z,80.56
2019-03-24T04:19:06.394Z,80.32
2019-03-24T04:24:00.359Z,80.54
2019-03-24T04:28:54.446Z,80.17
2019-03-24T04:33:48.433Z,80.16
2019-03-24T04:38:42.390Z,80.06
2019-03-24T04:43:36.362Z,80.19
2019-03-24T04:48:30.345Z,80.22
2019-03-24T04:53:24.310Z,80.19
2019-03-24T04:58:18.280Z,79.76
2019-03-24T05:03:12.343Z,79.61
2019-03-24T05:08:08.915Z,79.36
2019-03-24T05:13:02.911Z,79.47
2019-03-24T05:17:56.976Z,79.57
2019-03-24T05:22:50.942Z,79.53
2019-03-24T05:27:45.191Z,79.63
2019-03-24T05:32:39.162Z,79.44
2019-03-24T05:37:33.247Z,79.29
2019-03-24T05:42:27.181Z,79.20
2019-03-24T05:47:21.213Z,78.89
2019-03-24T05:52:15.172Z,79.07
2019-03-24T05:57:09.164Z,79.00
2019-03-24T06:02:03.212Z,78.83
2019-03-24T06:06:57.188Z,78.39
2019-03-24T06:11:51.151Z,77.84
2019-03-24T06:16:45.117Z,77.64
2019-03-24T06:21:39.073Z,77.69
2019-03-24T06:26:33.027Z,77.20
2019-03-24T06:31:26.997Z,76.85
2019-03-24T06:36:20.952Z,76.12
2019-03-24T06:41:14.902Z,75.38
2019-03-24T06:46:08.908Z,75.02
2019-03-24T06:51:02.983Z,74.58
2019-03-24T06:55:56.950Z,73.44
2019-03-24T07:00:51.041Z,73.13
2019-03-24T07:05:45.008Z,71.62
2019-03-24T07:10:39.173Z,71.71
2019-03-24T07:15:33.181Z,71.22
2019-03-24T07:20:27.270Z,70.13
2019-03-24T07:25:21.344Z,69.59
2019-03-24T07:30:15.600Z,68.87
2019-03-24T07:35:09.576Z,67.38
2019-03-24T07:40:05.840Z,66.02
2019-03-24T07:44:59.830Z,65.33
2019-03-24T07:49:53.947Z,64.78
2019-03-24T07:54:47.915Z,63.43
2019-03-24T07:59:41.933Z,63.21
2019-03-24T08:04:35.892Z,62.21
2019-03-24T08:09:29.876Z,60.40
2019-03-24T08:14:24.018Z,60.40
2019-03-24T08:19:17.976Z,59.75
2019-03-24T08:24:11.959Z,58.54
2019-03-24T08:29:05.920Z,58.56
2019-03-24T08:33:59.891Z,57.47
2019-03-24T08:38:53.982Z,57.70
2019-03-24T08:43:47.957Z,57.63
2019-03-24T08:48:42.007Z,53.67
2019-03-24T08:53:36.009Z,53.45
2019-03-24T08:58:29.969Z,53.37
2019-03-24T09:03:23.985Z,53.19
2019-03-24T09:08:18.080Z,52.66
2019-03-24T09:13:12.168Z,52.01
2019-03-24T09:18:06.156Z,50.28
2019-03-24T09:23:00.256Z,49.74
2019-03-24T09:27:54.345Z,49.16
2019-03-24T09:32:48.331Z,48.99
2019-03-24T09:37:42.299Z,47.95
2019-03-24T09:42:36.262Z,46.58
2019-03-24T09:47:30.277Z,45.96
2019-03-24T09:52:24.457Z,44.78
2019-03-24T09:57:18.458Z,44.45
2019-03-24T10:02:14.484Z,43.27
2019-03-24T10:07:08.460Z,43.50
2019-03-24T10:12:02.773Z,42.06
2019-03-24T10:16:56.858Z,41.90
2019-03-24T10:21:50.865Z,39.78
2019-03-24T10:26:44.983Z,41.17
2019-03-24T10:31:39.047Z,39.73
2019-03-24T10:36:33.335Z,36.00
2019-03-24T10:41:27.277Z,35.53
2019-03-24T10:46:21.394Z,33.46
2019-03-24T10:51:15.627Z,32.58
2019-03-24T10:56:09.625Z,31.91
2019-03-24T11:01:03.636Z,30.44
2019-03-24T11:05:57.741Z,24.95
2019-03-24T11:10:51.792Z,21.99
2019-03-24T11:15:45.985Z,21.99
2019-03-24T11:20:40.237Z,20.36
2019-03-24T11:25:34.317Z,16.57
2019-03-24T11:30:28.303Z,19.07
2019-03-24T11:35:22.390Z,22.95
2019-03-24T11:40:16.608Z,26.91
2019-03-24T11:45:11.221Z,28.15
2019-03-24T11:50:06.208Z,27.83
2019-03-24T11:55:00.417Z,20.89
2019-03-24T11:59:54.437Z,14.57
2019-03-24T12:04:48.438Z,13.76
2019-03-24T12:09:42.414Z,18.78
2019-03-24T12:14:36.409Z,20.49
2019-03-24T12:19:30.413Z,17.04
2019-03-24T12:24:24.388Z,17.18
2019-03-24T12:29:18.512Z,22.22
2019-03-24T12:34:12.502Z,19.91
2019-03-24T12:39:06.576Z,18.11
2019-03-24T12:44:00.568Z,16.74
2019-03-24T12:48:54.626Z,16.74
2019-03-24T12:53:48.740Z,15.53
2019-03-24T12:58:42.760Z,12.66
2019-03-24T13:03:36.771Z,11.13
2019-03-24T13:08:30.752Z,10.76
2019-03-24T13:13:24.879Z,11.12
2019-03-24T13:18:18.905Z,10.04
2019-03-24T13:23:13.123Z,10.80
2019-03-24T13:28:07.224Z,9.99
2019-03-24T13:33:01.404Z,11.51
2019-03-24T13:37:55.517Z,8.78
2019-03-24T13:42:49.498Z,9.49
2019-03-24T13:47:43.521Z,12.24
2019-03-24T13:52:37.534Z,16.00
2019-03-24T13:57:31.606Z,15.97
2019-03-24T14:02:25.705Z,16.10
2019-03-24T14:07:19.900Z,15.74
2019-03-24T14:12:13.892Z,12.55
2019-03-24T14:17:08.116Z,9.66
2019-03-24T14:22:02.344Z,7.83
2019-03-24T14:26:56.337Z,6.26
2019-03-24T14:31:50.403Z,5.15
2019-03-24T14:36:44.405Z,4.46
2019-03-24T14:41:38.600Z,3.63
2019-03-24T14:46:32.671Z,3.16
2019-03-24T14:51:26.744Z,3.20
2019-03-24T14:56:20.717Z,3.50
2019-03-24T15:01:14.690Z,2.88
2019-03-24T15:06:08.758Z,2.77
2019-03-24T15:11:02.882Z,4.06
2019-03-24T15:15:56.849Z,2.69
2019-03-24T15:20:50.968Z,2.23
2019-03-24T15:25:44.958Z,2.29
2019-03-24T15:30:39.076Z,3.09
2019-03-24T15:35:33.031Z,2.50
2019-03-24T15:40:27.135Z,1.98
2019-03-24T15:45:21.497Z,1.37
2019-03-24T15:50:15.586Z,2.13
2019-03-24T15:55:09.805Z,2.06
2019-03-24T16:00:06.077Z,2.37
2019-03-24T16:05:00.316Z,2.95
2019-03-24T16:09:54.397Z,2.83
2019-03-24T16:14:48.454Z,3.03
2019-03-24T16:19:42.440Z,3.48
2019-03-24T16:24:36.428Z,3.99
2019-03-24T16:29:30.482Z,4.29
2019-03-24T16:34:24.473Z,4.65
2019-03-24T16:39:18.435Z,5.14
2019-03-24T16:44:12.408Z,5.81
2019-03-24T16:49:06.454Z,7.09
2019-03-24T16:54:00.568Z,8.02
2019-03-24T16:58:54.671Z,9.83
2019-03-24T17:03:48.658Z,12.01
2019-03-24T17:08:42.635Z,12.59
2019-03-24T17:13:36.609Z,17.03
2019-03-24T17:18:30.819Z,21.06
2019-03-24T17:23:24.819Z,23.88
2019-03-24T17:28:18.854Z,26.37
2019-03-24T17:33:13.322Z,27.79
2019-03-24T17:38:07.446Z,30.04
2019-03-24T17:43:01.645Z,31.62
2019-03-24T17:47:57.828Z,33.21
2019-03-24T17:52:51.912Z,33.84
2019-03-24T17:57:46.054Z,35.61
2019-03-24T18:02:40.054Z,36.77
2019-03-24T18:07:34.091Z,38.70
2019-03-24T18:12:28.132Z,39.73
2019-03-24T18:17:22.159Z,40.29
2019-03-24T18:22:16.208Z,41.83
2019-03-24T18:27:10.257Z,41.44
2019-03-24T18:32:04.498Z,42.16
2019-03-24T18:36:58.494Z,40.98
2019-03-24T18:41:52.602Z,40.55
2019-03-24T18:46:46.615Z,41.04
2019-03-24T18:51:40.604Z,40.66
2019-03-24T18:56:34.698Z,41.95
2019-03-24T19:01:28.852Z,42.35
2019-03-24T19:06:23.071Z,42.90
2019-03-24T19:11:17.295Z,42.04
2019-03-24T19:16:11.311Z,42.67
2019-03-24T19:21:05.491Z,43.14
2019-03-24T19:25:59.553Z,44.03
2019-03-24T19:30:53.897Z,44.33
2019-03-24T19:35:48.073Z,44.93
2019-03-24T19:40:42.214Z,45.03
2019-03-24T19:45:36.201Z,44.66
2019-03-24T19:50:30.423Z,45.45
2019-03-24T19:55:24.482Z,45.54
2019-03-24T20:00:18.628Z,46.22
2019-03-24T20:05:12.662Z,46.52
2019-03-24T20:10:06.939Z,47.40
2019-03-24T20:15:01.186Z,46.98
2019-03-24T20:19:55.325Z,47.67
2019-03-24T20:24:49.456Z,48.69
2019-03-24T20:29:43.623Z,49.34
2019-03-24T20:34:37.786Z,49.81
2019-03-24T20:39:31.830Z,50.42
2019-03-24T20:44:25.924Z,50.62
2019-03-24T20:49:20.042Z,51.37
2019-03-24T20:54:14.036Z,50.65
2019-03-24T20:59:08.122Z,51.09
2019-03-24T21:04:02.231Z,52.22
2019-03-24T21:08:56.223Z,52.87
2019-03-24T21:13:50.249Z,53.80
2019-03-24T21:18:44.265Z,54.40
2019-03-24T21:23:38.265Z,55.28
2019-03-24T21:28:32.244Z,55.38
2019-03-24T21:33:26.337Z,56.33
2019-03-24T21:38:20.435Z,56.73
2019-03-24T21:43:14.522Z,56.78
2019-03-24T21:48:08.529Z,57.46
2019-03-24T21:53:02.945Z,57.83
2019-03-24T21:57:57.987Z,58.16
2019-03-24T22:02:52.208Z,58.03
2019-03-24T22:07:46.206Z,58.09
2019-03-24T22:12:40.193Z,59.21
2019-03-24T22:17:34.180Z,60.48
2019-03-24T22:22:28.425Z,61.17
2019-03-24T22:27:22.405Z,61.09
2019-03-24T22:32:16.377Z,61.15
2019-03-24T22:37:15.787Z,61.61
2019-03-24T22:42:06.258Z,62.07
2019-03-24T22:47:00.256Z,62.77
2019-03-24T22:51:58.709Z,63.41
2019-03-24T22:56:50.167Z,63.77
2019-03-24T23:01:44.500Z,64.15
2019-03-24T23:06:38.597Z,64.67
2019-03-24T23:11:32.675Z,65.15
2019-03-24T23:16:26.659Z,65.60
2019-03-24T23:21:20.647Z,65.82
2019-03-24T23:26:14.731Z,65.73
2019-03-24T23:31:08.735Z,64.92
2019-03-24T23:36:02.803Z,64.30
2019-03-24T23:40:56.780Z,64.69
2019-03-24T23:45:50.744Z,65.50
2019-03-24T23:50:44.848Z,66.23
2019-03-24T23:55:38.828Z,65.70
